sensor_id;sensor_type;location;lat;lon;timestamp;temperature;humidity
14409;DHT22;7289;50.706;4.992;2022-10-16T00:01:26;13.60;99.90
14409;DHT22;7289;50.706;4.992;2022-10-16T00:03:55;13.60;99.90
14409;DHT22;7289;50.706;4.992;2022-10-16T00:06:24;13.60;99.90
14409;DHT22;7289;50.706;4.992;2022-10-16T00:08:53;13.60;99.90
14409;DHT22;7289;50.706;4.992;2022-10-16T00:11:23;13.60;99.90
14409;DHT22;7289;50.706;4.992;2022-10-16T00:13:56;13.60;99.90
14409;DHT22;7289;50.706;4.992;2022-10-16T00:16:25;13.60;99.90
14409;DHT22;7289;50.706;4.992;2022-10-16T00:18:54;13.50;99.90
14409;DHT22;7289;50.706;4.992;2022-10-16T00:21:25;13.60;99.90
14409;DHT22;7289;50.706;4.992;2022-10-16T00:24:12;13.60;99.90
14409;DHT22;7289;50.706;4.992;2022-10-16T00:26:40;13.60;99.90
14409;DHT22;7289;50.706;4.992;2022-10-16T00:29:10;13.60;99.90
14409;DHT22;7289;50.706;4.992;2022-10-16T00:31:38;13.60;99.90
14409;DHT22;7289;50.706;4.992;2022-10-16T00:34:06;13.60;99.90
14409;DHT22;7289;50.706;4.992;2022-10-16T00:36:35;13.60;99.90
14409;DHT22;7289;50.706;4.992;2022-10-16T00:39:03;13.60;99.90
14409;DHT22;7289;50.706;4.992;2022-10-16T00:41:32;13.60;99.90
14409;DHT22;7289;50.706;4.992;2022-10-16T00:44:02;13.60;99.90
14409;DHT22;7289;50.706;4.992;2022-10-16T00:46:37;13.60;99.90
14409;DHT22;7289;50.706;4.992;2022-10-16T00:49:08;13.60;99.90
14409;DHT22;7289;50.706;4.992;2022-10-16T00:51:39;13.60;99.90
14409;DHT22;7289;50.706;4.992;2022-10-16T00:54:12;13.70;99.90
14409;DHT22;7289;50.706;4.992;2022-10-16T00:56:41;13.60;99.90
14409;DHT22;7289;50.706;4.992;2022-10-16T00:59:15;13.70;99.90
14409;DHT22;7289;50.706;4.992;2022-10-16T01:01:45;13.70;99.90
14409;DHT22;7289;50.706;4.992;2022-10-16T01:04:14;13.60;99.90
14409;DHT22;7289;50.706;4.992;2022-10-16T01:06:46;13.60;99.90
14409;DHT22;7289;50.706;4.992;2022-10-16T01:09:21;13.60;99.90
14409;DHT22;7289;50.706;4.992;2022-10-16T01:11:59;13.60;99.90
14409;DHT22;7289;50.706;4.992;2022-10-16T01:14:36;13.60;99.90
14409;DHT22;7289;50.706;4.992;2022-10-16T01:17:11;13.60;99.90
14409;DHT22;7289;50.706;4.992;2022-10-16T01:20:03;13.50;99.90
14409;DHT22;7289;50.706;4.992;2022-10-16T01:22:43;13.50;99.90
14409;DHT22;7289;50.706;4.992;2022-10-16T01:25:22;13.50;99.90
14409;DHT22;7289;50.706;4.992;2022-10-16T01:27:55;13.50;99.90
14409;DHT22;7289;50.706;4.992;2022-10-16T01:30:27;13.40;99.90
14409;DHT22;7289;50.706;4.992;2022-10-16T01:33:01;13.40;99.90
14409;DHT22;7289;50.706;4.992;2022-10-16T01:35:36;13.40;99.90
14409;DHT22;7289;50.706;4.992;2022-10-16T01:38:08;13.40;99.90
14409;DHT22;7289;50.706;4.992;2022-10-16T01:40:40;13.40;99.90
14409;DHT22;7289;50.706;4.992;2022-10-16T01:43:14;13.40;99.90
14409;DHT22;7289;50.706;4.992;2022-10-16T01:45:45;13.40;99.90
14409;DHT22;7289;50.706;4.992;2022-10-16T01:48:16;13.40;99.90
14409;DHT22;7289;50.706;4.992;2022-10-16T01:50:56;13.40;99.90
14409;DHT22;7289;50.706;4.992;2022-10-16T01:53:27;13.40;99.90
14409;DHT22;7289;50.706;4.992;2022-10-16T01:55:58;13.50;99.90
14409;DHT22;7289;50.706;4.992;2022-10-16T01:58:29;13.40;99.90
14409;DHT22;7289;50.706;4.992;2022-10-16T02:01:02;13.40;99.90
14409;DHT22;7289;50.706;4.992;2022-10-16T02:03:32;13.40;99.90
14409;DHT22;7289;50.706;4.992;2022-10-16T02:06:02;13.50;99.90
14409;DHT22;7289;50.706;4.992;2022-10-16T02:08:30;13.40;99.90
14409;DHT22;7289;50.706;4.992;2022-10-16T02:11:00;13.40;99.90
14409;DHT22;7289;50.706;4.992;2022-10-16T02:13:34;13.40;99.90
14409;DHT22;7289;50.706;4.992;2022-10-16T02:16:05;13.40;99.90
14409;DHT22;7289;50.706;4.992;2022-10-16T02:18:34;13.50;99.90
14409;DHT22;7289;50.706;4.992;2022-10-16T02:21:05;13.40;99.90
14409;DHT22;7289;50.706;4.992;2022-10-16T02:23:43;13.40;99.90
14409;DHT22;7289;50.706;4.992;2022-10-16T02:26:16;13.40;99.90
14409;DHT22;7289;50.706;4.992;2022-10-16T02:28:54;13.40;99.90
14409;DHT22;7289;50.706;4.992;2022-10-16T02:31:28;13.40;99.90
14409;DHT22;7289;50.706;4.992;2022-10-16T02:33:59;13.30;99.90
14409;DHT22;7289;50.706;4.992;2022-10-16T02:36:28;13.40;99.90
14409;DHT22;7289;50.706;4.992;2022-10-16T02:38:57;13.40;99.90
14409;DHT22;7289;50.706;4.992;2022-10-16T02:41:27;13.30;99.90
14409;DHT22;7289;50.706;4.992;2022-10-16T02:43:57;13.40;99.90
14409;DHT22;7289;50.706;4.992;2022-10-16T02:46:25;13.40;99.90
14409;DHT22;7289;50.706;4.992;2022-10-16T02:48:53;13.40;99.90
14409;DHT22;7289;50.706;4.992;2022-10-16T02:51:22;13.40;99.90
14409;DHT22;7289;50.706;4.992;2022-10-16T02:53:50;13.40;99.90
14409;DHT22;7289;50.706;4.992;2022-10-16T02:56:18;13.40;99.90
14409;DHT22;7289;50.706;4.992;2022-10-16T02:58:47;13.40;99.90
14409;DHT22;7289;50.706;4.992;2022-10-16T03:01:16;13.30;99.90
14409;DHT22;7289;50.706;4.992;2022-10-16T03:03:45;13.40;99.90
14409;DHT22;7289;50.706;4.992;2022-10-16T03:06:13;13.30;99.90
14409;DHT22;7289;50.706;4.992;2022-10-16T03:08:41;13.30;99.90
14409;DHT22;7289;50.706;4.992;2022-10-16T03:11:09;13.20;99.90
14409;DHT22;7289;50.706;4.992;2022-10-16T03:13:38;13.20;99.90
14409;DHT22;7289;50.706;4.992;2022-10-16T03:16:06;13.10;99.90
14409;DHT22;7289;50.706;4.992;2022-10-16T03:18:35;13.10;99.90
14409;DHT22;7289;50.706;4.992;2022-10-16T03:21:04;13.10;99.90
14409;DHT22;7289;50.706;4.992;2022-10-16T03:23:32;13.10;99.90
14409;DHT22;7289;50.706;4.992;2022-10-16T03:26:00;13.10;99.90
14409;DHT22;7289;50.706;4.992;2022-10-16T03:28:28;13.10;99.90
14409;DHT22;7289;50.706;4.992;2022-10-16T03:30:57;13.10;99.90
14409;DHT22;7289;50.706;4.992;2022-10-16T03:33:25;13.10;99.90
14409;DHT22;7289;50.706;4.992;2022-10-16T03:35:55;13.10;99.90
14409;DHT22;7289;50.706;4.992;2022-10-16T03:38:23;13.10;99.90
14409;DHT22;7289;50.706;4.992;2022-10-16T03:40:51;13.00;99.90
14409;DHT22;7289;50.706;4.992;2022-10-16T03:43:20;13.00;99.90
14409;DHT22;7289;50.706;4.992;2022-10-16T03:45:50;12.90;99.90
14409;DHT22;7289;50.706;4.992;2022-10-16T03:48:18;12.90;99.90
14409;DHT22;7289;50.706;4.992;2022-10-16T03:50:46;12.90;99.90
14409;DHT22;7289;50.706;4.992;2022-10-16T03:53:17;12.90;99.90
14409;DHT22;7289;50.706;4.992;2022-10-16T03:55:45;12.80;99.90
14409;DHT22;7289;50.706;4.992;2022-10-16T03:58:13;12.80;99.90
14409;DHT22;7289;50.706;4.992;2022-10-16T04:00:42;12.80;99.90
14409;DHT22;7289;50.706;4.992;2022-10-16T04:03:10;12.80;99.90
14409;DHT22;7289;50.706;4.992;2022-10-16T04:05:39;12.80;99.90
14409;DHT22;7289;50.706;4.992;2022-10-16T04:08:07;12.70;99.90
14409;DHT22;7289;50.706;4.992;2022-10-16T04:10:37;12.70;99.90
14409;DHT22;7289;50.706;4.992;2022-10-16T04:13:05;12.70;99.90
14409;DHT22;7289;50.706;4.992;2022-10-16T04:15:34;12.70;99.90
14409;DHT22;7289;50.706;4.992;2022-10-16T04:18:02;12.70;99.90
14409;DHT22;7289;50.706;4.992;2022-10-16T04:20:31;12.70;99.90
14409;DHT22;7289;50.706;4.992;2022-10-16T04:22:59;12.70;99.90
14409;DHT22;7289;50.706;4.992;2022-10-16T04:25:28;12.80;99.90
14409;DHT22;7289;50.706;4.992;2022-10-16T04:27:57;12.80;99.90
14409;DHT22;7289;50.706;4.992;2022-10-16T04:30:25;12.80;99.90
14409;DHT22;7289;50.706;4.992;2022-10-16T04:32:54;12.70;99.90
14409;DHT22;7289;50.706;4.992;2022-10-16T04:35:22;12.80;99.90
14409;DHT22;7289;50.706;4.992;2022-10-16T04:37:50;12.80;99.90
14409;DHT22;7289;50.706;4.992;2022-10-16T04:40:19;12.70;99.90
14409;DHT22;7289;50.706;4.992;2022-10-16T04:42:47;12.80;99.90
14409;DHT22;7289;50.706;4.992;2022-10-16T04:45:16;12.80;99.90
14409;DHT22;7289;50.706;4.992;2022-10-16T04:47:45;12.80;99.90
14409;DHT22;7289;50.706;4.992;2022-10-16T04:50:13;12.90;99.90
14409;DHT22;7289;50.706;4.992;2022-10-16T04:53:00;12.90;99.90
14409;DHT22;7289;50.706;4.992;2022-10-16T04:55:28;12.90;99.90
14409;DHT22;7289;50.706;4.992;2022-10-16T04:57:57;12.90;99.90
14409;DHT22;7289;50.706;4.992;2022-10-16T05:00:26;12.90;99.90
14409;DHT22;7289;50.706;4.992;2022-10-16T05:02:55;12.90;99.90
14409;DHT22;7289;50.706;4.992;2022-10-16T05:05:24;12.90;99.90
14409;DHT22;7289;50.706;4.992;2022-10-16T05:07:52;12.90;99.90
14409;DHT22;7289;50.706;4.992;2022-10-16T05:10:21;12.80;99.90
14409;DHT22;7289;50.706;4.992;2022-10-16T05:12:49;12.90;99.90
14409;DHT22;7289;50.706;4.992;2022-10-16T05:15:18;12.90;99.90
14409;DHT22;7289;50.706;4.992;2022-10-16T05:17:47;12.80;99.90
14409;DHT22;7289;50.706;4.992;2022-10-16T05:20:16;12.80;99.90
14409;DHT22;7289;50.706;4.992;2022-10-16T05:22:44;12.80;99.90
14409;DHT22;7289;50.706;4.992;2022-10-16T05:25:12;12.80;99.90
14409;DHT22;7289;50.706;4.992;2022-10-16T05:27:40;12.80;99.90
14409;DHT22;7289;50.706;4.992;2022-10-16T05:30:09;12.80;99.90
14409;DHT22;7289;50.706;4.992;2022-10-16T05:32:38;12.80;99.90
14409;DHT22;7289;50.706;4.992;2022-10-16T05:35:08;12.80;99.90
14409;DHT22;7289;50.706;4.992;2022-10-16T05:37:38;12.80;99.90
14409;DHT22;7289;50.706;4.992;2022-10-16T05:40:08;12.80;99.90
14409;DHT22;7289;50.706;4.992;2022-10-16T05:42:36;12.80;99.90
14409;DHT22;7289;50.706;4.992;2022-10-16T05:45:06;12.90;99.90
14409;DHT22;7289;50.706;4.992;2022-10-16T05:47:34;12.90;99.90
14409;DHT22;7289;50.706;4.992;2022-10-16T05:50:03;12.90;99.90
14409;DHT22;7289;50.706;4.992;2022-10-16T05:52:33;12.90;99.90
14409;DHT22;7289;50.706;4.992;2022-10-16T05:55:01;12.90;99.90
14409;DHT22;7289;50.706;4.992;2022-10-16T05:57:30;12.90;99.90
14409;DHT22;7289;50.706;4.992;2022-10-16T05:59:58;12.90;99.90
14409;DHT22;7289;50.706;4.992;2022-10-16T06:02:26;12.90;99.90
14409;DHT22;7289;50.706;4.992;2022-10-16T06:04:55;12.90;99.90
14409;DHT22;7289;50.706;4.992;2022-10-16T06:07:23;12.90;99.90
14409;DHT22;7289;50.706;4.992;2022-10-16T06:09:53;12.90;99.90
14409;DHT22;7289;50.706;4.992;2022-10-16T06:12:21;12.80;99.90
14409;DHT22;7289;50.706;4.992;2022-10-16T06:14:50;12.80;99.90
14409;DHT22;7289;50.706;4.992;2022-10-16T06:17:18;12.80;99.90
14409;DHT22;7289;50.706;4.992;2022-10-16T06:19:46;12.80;99.90
14409;DHT22;7289;50.706;4.992;2022-10-16T06:22:15;12.80;99.90
14409;DHT22;7289;50.706;4.992;2022-10-16T06:24:43;12.80;99.90
14409;DHT22;7289;50.706;4.992;2022-10-16T06:27:12;12.70;99.90
14409;DHT22;7289;50.706;4.992;2022-10-16T06:29:41;12.70;99.90
14409;DHT22;7289;50.706;4.992;2022-10-16T06:32:09;12.70;99.90
14409;DHT22;7289;50.706;4.992;2022-10-16T06:34:38;12.70;99.90
14409;DHT22;7289;50.706;4.992;2022-10-16T06:37:11;12.70;99.90
14409;DHT22;7289;50.706;4.992;2022-10-16T06:39:42;12.70;99.90
14409;DHT22;7289;50.706;4.992;2022-10-16T06:42:15;12.60;99.90
14409;DHT22;7289;50.706;4.992;2022-10-16T06:44:44;12.70;99.90
14409;DHT22;7289;50.706;4.992;2022-10-16T06:47:13;12.60;99.90
14409;DHT22;7289;50.706;4.992;2022-10-16T06:49:41;12.70;99.90
14409;DHT22;7289;50.706;4.992;2022-10-16T06:52:09;12.70;99.90
14409;DHT22;7289;50.706;4.992;2022-10-16T06:54:37;12.70;99.90
14409;DHT22;7289;50.706;4.992;2022-10-16T06:57:08;12.70;99.90
14409;DHT22;7289;50.706;4.992;2022-10-16T06:59:38;12.70;99.90
14409;DHT22;7289;50.706;4.992;2022-10-16T07:02:11;12.70;99.90
14409;DHT22;7289;50.706;4.992;2022-10-16T07:04:39;12.70;99.90
14409;DHT22;7289;50.706;4.992;2022-10-16T07:07:07;12.80;99.90
14409;DHT22;7289;50.706;4.992;2022-10-16T07:09:35;12.90;99.90
14409;DHT22;7289;50.706;4.992;2022-10-16T07:12:04;12.90;99.90
14409;DHT22;7289;50.706;4.992;2022-10-16T07:14:32;13.00;99.90
14409;DHT22;7289;50.706;4.992;2022-10-16T07:17:02;13.10;99.90
14409;DHT22;7289;50.706;4.992;2022-10-16T07:19:30;13.10;99.90
14409;DHT22;7289;50.706;4.992;2022-10-16T07:22:00;13.10;99.90
14409;DHT22;7289;50.706;4.992;2022-10-16T07:24:29;13.20;99.90
14409;DHT22;7289;50.706;4.992;2022-10-16T07:26:58;13.30;99.90
14409;DHT22;7289;50.706;4.992;2022-10-16T07:29:26;13.40;99.90
14409;DHT22;7289;50.706;4.992;2022-10-16T07:31:54;13.50;99.90
14409;DHT22;7289;50.706;4.992;2022-10-16T07:34:24;13.50;99.90
14409;DHT22;7289;50.706;4.992;2022-10-16T07:36:53;13.60;99.90
14409;DHT22;7289;50.706;4.992;2022-10-16T07:39:21;13.70;99.90
14409;DHT22;7289;50.706;4.992;2022-10-16T07:41:50;13.70;99.90
14409;DHT22;7289;50.706;4.992;2022-10-16T07:44:18;13.80;99.90
14409;DHT22;7289;50.706;4.992;2022-10-16T07:46:46;13.90;99.90
14409;DHT22;7289;50.706;4.992;2022-10-16T07:49:14;14.00;99.90
14409;DHT22;7289;50.706;4.992;2022-10-16T07:51:44;14.10;99.90
14409;DHT22;7289;50.706;4.992;2022-10-16T07:54:12;14.20;99.90
14409;DHT22;7289;50.706;4.992;2022-10-16T07:56:40;14.30;99.90
14409;DHT22;7289;50.706;4.992;2022-10-16T07:59:10;14.40;99.90
14409;DHT22;7289;50.706;4.992;2022-10-16T08:01:38;14.50;99.90
14409;DHT22;7289;50.706;4.992;2022-10-16T08:04:09;14.50;99.90
14409;DHT22;7289;50.706;4.992;2022-10-16T08:06:38;14.70;99.90
14409;DHT22;7289;50.706;4.992;2022-10-16T08:09:08;14.70;99.90
14409;DHT22;7289;50.706;4.992;2022-10-16T08:11:36;14.80;99.90
14409;DHT22;7289;50.706;4.992;2022-10-16T08:14:05;14.90;99.90
14409;DHT22;7289;50.706;4.992;2022-10-16T08:16:33;14.90;99.90
14409;DHT22;7289;50.706;4.992;2022-10-16T08:19:01;15.00;99.90
14409;DHT22;7289;50.706;4.992;2022-10-16T08:21:29;15.10;99.90
14409;DHT22;7289;50.706;4.992;2022-10-16T08:23:58;15.20;99.90
14409;DHT22;7289;50.706;4.992;2022-10-16T08:26:28;15.30;99.90
14409;DHT22;7289;50.706;4.992;2022-10-16T08:28:56;15.30;99.90
14409;DHT22;7289;50.706;4.992;2022-10-16T08:31:25;15.40;99.90
14409;DHT22;7289;50.706;4.992;2022-10-16T08:33:54;15.50;99.90
14409;DHT22;7289;50.706;4.992;2022-10-16T08:36:22;15.60;99.90
14409;DHT22;7289;50.706;4.992;2022-10-16T08:38:51;15.70;99.90
14409;DHT22;7289;50.706;4.992;2022-10-16T08:44:33;15.80;99.90
14409;DHT22;7289;50.706;4.992;2022-10-16T08:47:12;15.80;99.90
14409;DHT22;7289;50.706;4.992;2022-10-16T08:49:43;15.90;99.90
14409;DHT22;7289;50.706;4.992;2022-10-16T08:52:15;15.90;99.90
14409;DHT22;7289;50.706;4.992;2022-10-16T08:54:46;16.00;99.90
14409;DHT22;7289;50.706;4.992;2022-10-16T08:57:19;16.10;99.90
14409;DHT22;7289;50.706;4.992;2022-10-16T08:59:51;16.20;99.90
14409;DHT22;7289;50.706;4.992;2022-10-16T09:02:28;16.30;99.90
14409;DHT22;7289;50.706;4.992;2022-10-16T09:05:17;16.30;99.90
14409;DHT22;7289;50.706;4.992;2022-10-16T09:07:56;16.40;99.90
14409;DHT22;7289;50.706;4.992;2022-10-16T09:10:38;16.50;99.90
14409;DHT22;7289;50.706;4.992;2022-10-16T09:13:19;16.60;99.90
14409;DHT22;7289;50.706;4.992;2022-10-16T09:15:55;16.70;99.90
14409;DHT22;7289;50.706;4.992;2022-10-16T09:18:34;16.80;99.90
14409;DHT22;7289;50.706;4.992;2022-10-16T09:21:09;16.80;99.90
14409;DHT22;7289;50.706;4.992;2022-10-16T09:23:39;16.80;99.90
14409;DHT22;7289;50.706;4.992;2022-10-16T09:26:11;16.80;99.90
14409;DHT22;7289;50.706;4.992;2022-10-16T09:28:42;17.00;99.90
14409;DHT22;7289;50.706;4.992;2022-10-16T09:31:15;17.00;99.90
14409;DHT22;7289;50.706;4.992;2022-10-16T09:33:47;16.90;99.90
14409;DHT22;7289;50.706;4.992;2022-10-16T09:36:17;17.00;99.90
14409;DHT22;7289;50.706;4.992;2022-10-16T09:38:45;17.20;99.90
14409;DHT22;7289;50.706;4.992;2022-10-16T09:41:19;17.30;99.90
14409;DHT22;7289;50.706;4.992;2022-10-16T09:43:53;17.50;99.90
14409;DHT22;7289;50.706;4.992;2022-10-16T09:46:25;17.60;99.90
14409;DHT22;7289;50.706;4.992;2022-10-16T09:48:56;17.70;99.90
14409;DHT22;7289;50.706;4.992;2022-10-16T09:51:28;17.80;99.90
14409;DHT22;7289;50.706;4.992;2022-10-16T09:53:59;17.80;99.90
14409;DHT22;7289;50.706;4.992;2022-10-16T09:56:29;17.90;99.90
14409;DHT22;7289;50.706;4.992;2022-10-16T09:59:02;18.00;99.90
14409;DHT22;7289;50.706;4.992;2022-10-16T10:01:36;18.00;99.90
14409;DHT22;7289;50.706;4.992;2022-10-16T10:04:06;18.10;99.90
14409;DHT22;7289;50.706;4.992;2022-10-16T10:06:36;18.20;99.90
14409;DHT22;7289;50.706;4.992;2022-10-16T10:09:15;18.30;99.90
14409;DHT22;7289;50.706;4.992;2022-10-16T10:11:48;18.40;99.90
14409;DHT22;7289;50.706;4.992;2022-10-16T10:14:23;18.50;99.90
14409;DHT22;7289;50.706;4.992;2022-10-16T10:17:01;18.50;99.90
14409;DHT22;7289;50.706;4.992;2022-10-16T10:19:30;18.50;99.90
14409;DHT22;7289;50.706;4.992;2022-10-16T10:22:16;18.70;99.90
14409;DHT22;7289;50.706;4.992;2022-10-16T10:24:46;18.70;99.90
14409;DHT22;7289;50.706;4.992;2022-10-16T10:27:27;18.80;99.90
14409;DHT22;7289;50.706;4.992;2022-10-16T10:30:02;18.90;99.90
14409;DHT22;7289;50.706;4.992;2022-10-16T10:32:39;18.90;99.90
14409;DHT22;7289;50.706;4.992;2022-10-16T10:35:17;18.80;99.90
14409;DHT22;7289;50.706;4.992;2022-10-16T10:38:03;18.80;99.90
14409;DHT22;7289;50.706;4.992;2022-10-16T10:40:45;18.60;99.90
14409;DHT22;7289;50.706;4.992;2022-10-16T10:43:27;18.50;99.90
14409;DHT22;7289;50.706;4.992;2022-10-16T10:46:03;18.40;99.90
14409;DHT22;7289;50.706;4.992;2022-10-16T10:48:47;18.20;99.90
14409;DHT22;7289;50.706;4.992;2022-10-16T10:51:25;18.20;99.90
14409;DHT22;7289;50.706;4.992;2022-10-16T10:54:04;18.20;99.90
14409;DHT22;7289;50.706;4.992;2022-10-16T10:56:43;18.30;99.90
14409;DHT22;7289;50.706;4.992;2022-10-16T10:59:43;18.30;99.90
14409;DHT22;7289;50.706;4.992;2022-10-16T11:02:23;18.30;99.90
14409;DHT22;7289;50.706;4.992;2022-10-16T11:05:31;18.40;99.90
14409;DHT22;7289;50.706;4.992;2022-10-16T11:08:04;18.60;99.90
14409;DHT22;7289;50.706;4.992;2022-10-16T11:10:42;18.80;99.90
14409;DHT22;7289;50.706;4.992;2022-10-16T11:13:21;18.90;99.90
14409;DHT22;7289;50.706;4.992;2022-10-16T11:15:55;19.20;99.90
14409;DHT22;7289;50.706;4.992;2022-10-16T11:18:32;19.50;99.90
14409;DHT22;7289;50.706;4.992;2022-10-16T11:21:08;19.80;99.90
14409;DHT22;7289;50.706;4.992;2022-10-16T11:23:41;20.00;99.80
14409;DHT22;7289;50.706;4.992;2022-10-16T11:26:14;20.20;99.30
14409;DHT22;7289;50.706;4.992;2022-10-16T11:28:47;20.40;97.90
14409;DHT22;7289;50.706;4.992;2022-10-16T11:31:19;20.60;97.80
14409;DHT22;7289;50.706;4.992;2022-10-16T11:33:57;20.70;97.40
14409;DHT22;7289;50.706;4.992;2022-10-16T11:36:36;21.00;97.80
14409;DHT22;7289;50.706;4.992;2022-10-16T11:39:16;21.50;97.30
14409;DHT22;7289;50.706;4.992;2022-10-16T11:41:49;21.70;97.40
14409;DHT22;7289;50.706;4.992;2022-10-16T11:44:44;21.80;97.40
14409;DHT22;7289;50.706;4.992;2022-10-16T11:47:27;21.70;97.40
14409;DHT22;7289;50.706;4.992;2022-10-16T11:50:25;21.60;97.00
14409;DHT22;7289;50.706;4.992;2022-10-16T11:53:01;21.80;97.20
14409;DHT22;7289;50.706;4.992;2022-10-16T11:55:34;21.70;97.20
14409;DHT22;7289;50.706;4.992;2022-10-16T11:58:16;21.80;97.40
14409;DHT22;7289;50.706;4.992;2022-10-16T12:00:51;22.00;97.60
14409;DHT22;7289;50.706;4.992;2022-10-16T12:03:25;22.10;96.00
14409;DHT22;7289;50.706;4.992;2022-10-16T12:06:22;22.20;95.80
14409;DHT22;7289;50.706;4.992;2022-10-16T12:08:52;22.70;96.10
14409;DHT22;7289;50.706;4.992;2022-10-16T12:11:31;22.90;94.70
14409;DHT22;7289;50.706;4.992;2022-10-16T12:17:26;23.10;94.40
14409;DHT22;7289;50.706;4.992;2022-10-16T12:19:59;23.40;94.30
14409;DHT22;7289;50.706;4.992;2022-10-16T12:22:30;23.50;92.90
14409;DHT22;7289;50.706;4.992;2022-10-16T12:25:17;23.40;93.10
14409;DHT22;7289;50.706;4.992;2022-10-16T12:27:54;23.30;91.80
14409;DHT22;7289;50.706;4.992;2022-10-16T12:30:25;23.20;92.60
14409;DHT22;7289;50.706;4.992;2022-10-16T12:33:00;23.00;91.90
14409;DHT22;7289;50.706;4.992;2022-10-16T12:35:31;23.10;92.40
14409;DHT22;7289;50.706;4.992;2022-10-16T12:38:15;23.00;92.20
14409;DHT22;7289;50.706;4.992;2022-10-16T12:40:46;23.10;92.80
14409;DHT22;7289;50.706;4.992;2022-10-16T12:43:26;23.20;92.30
14409;DHT22;7289;50.706;4.992;2022-10-16T12:46:00;23.00;92.30
14409;DHT22;7289;50.706;4.992;2022-10-16T12:48:29;22.90;92.40
14409;DHT22;7289;50.706;4.992;2022-10-16T12:51:32;22.80;92.40
14409;DHT22;7289;50.706;4.992;2022-10-16T12:54:04;22.70;92.70
14409;DHT22;7289;50.706;4.992;2022-10-16T12:56:40;22.60;92.60
14409;DHT22;7289;50.706;4.992;2022-10-16T12:59:28;22.70;92.70
14409;DHT22;7289;50.706;4.992;2022-10-16T13:02:27;22.80;92.20
14409;DHT22;7289;50.706;4.992;2022-10-16T13:05:13;22.90;92.40
14409;DHT22;7289;50.706;4.992;2022-10-16T13:07:53;23.10;92.50
14409;DHT22;7289;50.706;4.992;2022-10-16T13:10:30;23.30;92.30
14409;DHT22;7289;50.706;4.992;2022-10-16T13:16:08;23.20;91.60
14409;DHT22;7289;50.706;4.992;2022-10-16T13:18:48;23.30;91.70
14409;DHT22;7289;50.706;4.992;2022-10-16T13:21:29;23.10;91.60
14409;DHT22;7289;50.706;4.992;2022-10-16T13:24:04;23.00;92.00
14409;DHT22;7289;50.706;4.992;2022-10-16T13:26:42;22.90;91.70
14409;DHT22;7289;50.706;4.992;2022-10-16T13:29:13;22.80;92.00
14409;DHT22;7289;50.706;4.992;2022-10-16T13:31:43;22.70;92.40
14409;DHT22;7289;50.706;4.992;2022-10-16T13:34:15;22.70;92.60
14409;DHT22;7289;50.706;4.992;2022-10-16T13:36:46;22.60;92.50
14409;DHT22;7289;50.706;4.992;2022-10-16T13:39:22;22.40;93.30
14409;DHT22;7289;50.706;4.992;2022-10-16T13:42:07;22.30;93.60
14409;DHT22;7289;50.706;4.992;2022-10-16T13:44:47;22.30;93.70
14409;DHT22;7289;50.706;4.992;2022-10-16T13:47:18;22.30;94.80
14409;DHT22;7289;50.706;4.992;2022-10-16T13:49:58;22.30;94.30
14409;DHT22;7289;50.706;4.992;2022-10-16T13:52:26;22.30;94.60
14409;DHT22;7289;50.706;4.992;2022-10-16T13:54:55;22.50;94.50
14409;DHT22;7289;50.706;4.992;2022-10-16T13:57:29;22.50;94.70
14409;DHT22;7289;50.706;4.992;2022-10-16T13:59:57;22.50;94.80
14409;DHT22;7289;50.706;4.992;2022-10-16T14:02:29;22.50;95.10
14409;DHT22;7289;50.706;4.992;2022-10-16T14:04:58;22.40;95.60
14409;DHT22;7289;50.706;4.992;2022-10-16T14:07:28;22.20;96.10
14409;DHT22;7289;50.706;4.992;2022-10-16T14:10:02;22.10;96.20
14409;DHT22;7289;50.706;4.992;2022-10-16T14:12:32;22.00;96.80
14409;DHT22;7289;50.706;4.992;2022-10-16T14:15:01;22.00;97.10
14409;DHT22;7289;50.706;4.992;2022-10-16T14:17:31;22.00;97.30
14409;DHT22;7289;50.706;4.992;2022-10-16T14:20:03;22.00;97.40
14409;DHT22;7289;50.706;4.992;2022-10-16T14:22:35;22.00;97.80
14409;DHT22;7289;50.706;4.992;2022-10-16T14:25:21;22.00;97.70
14409;DHT22;7289;50.706;4.992;2022-10-16T14:28:03;21.90;97.90
14409;DHT22;7289;50.706;4.992;2022-10-16T14:30:33;21.80;98.20
14409;DHT22;7289;50.706;4.992;2022-10-16T14:33:03;21.70;98.40
14409;DHT22;7289;50.706;4.992;2022-10-16T14:35:34;21.70;98.40
14409;DHT22;7289;50.706;4.992;2022-10-16T14:38:04;21.70;98.20
14409;DHT22;7289;50.706;4.992;2022-10-16T14:40:36;21.60;98.50
14409;DHT22;7289;50.706;4.992;2022-10-16T14:43:06;21.60;98.30
14409;DHT22;7289;50.706;4.992;2022-10-16T14:45:35;21.60;98.40
14409;DHT22;7289;50.706;4.992;2022-10-16T14:48:06;21.60;98.60
14409;DHT22;7289;50.706;4.992;2022-10-16T14:50:46;21.60;98.80
14409;DHT22;7289;50.706;4.992;2022-10-16T14:53:14;21.60;98.90
14409;DHT22;7289;50.706;4.992;2022-10-16T14:55:43;21.60;99.00
14409;DHT22;7289;50.706;4.992;2022-10-16T14:58:16;21.60;99.00
14409;DHT22;7289;50.706;4.992;2022-10-16T15:00:45;21.60;99.10
14409;DHT22;7289;50.706;4.992;2022-10-16T15:03:14;21.60;99.10
14409;DHT22;7289;50.706;4.992;2022-10-16T15:05:42;21.60;99.00
14409;DHT22;7289;50.706;4.992;2022-10-16T15:08:11;21.60;99.20
14409;DHT22;7289;50.706;4.992;2022-10-16T15:10:42;21.50;99.30
14409;DHT22;7289;50.706;4.992;2022-10-16T15:13:15;21.40;99.40
14409;DHT22;7289;50.706;4.992;2022-10-16T15:15:44;21.40;99.60
14409;DHT22;7289;50.706;4.992;2022-10-16T15:18:13;21.30;99.60
14409;DHT22;7289;50.706;4.992;2022-10-16T15:20:48;21.30;99.70
14409;DHT22;7289;50.706;4.992;2022-10-16T15:23:19;21.20;99.80
14409;DHT22;7289;50.706;4.992;2022-10-16T15:25:49;21.10;99.90
14409;DHT22;7289;50.706;4.992;2022-10-16T15:28:20;21.10;99.90
14409;DHT22;7289;50.706;4.992;2022-10-16T15:30:50;21.00;99.90
14409;DHT22;7289;50.706;4.992;2022-10-16T15:33:20;20.90;99.90
14409;DHT22;7289;50.706;4.992;2022-10-16T15:35:51;20.90;99.90
14409;DHT22;7289;50.706;4.992;2022-10-16T15:38:21;20.80;99.90
14409;DHT22;7289;50.706;4.992;2022-10-16T15:40:50;20.70;99.90
14409;DHT22;7289;50.706;4.992;2022-10-16T15:43:20;20.60;99.90
14409;DHT22;7289;50.706;4.992;2022-10-16T15:45:59;20.60;99.90
14409;DHT22;7289;50.706;4.992;2022-10-16T15:48:29;20.40;99.90
14409;DHT22;7289;50.706;4.992;2022-10-16T15:50:57;20.30;99.90
14409;DHT22;7289;50.706;4.992;2022-10-16T15:53:25;20.20;99.90
14409;DHT22;7289;50.706;4.992;2022-10-16T15:55:53;20.10;99.90
14409;DHT22;7289;50.706;4.992;2022-10-16T15:58:23;20.10;99.90
14409;DHT22;7289;50.706;4.992;2022-10-16T16:00:55;19.90;99.90
14409;DHT22;7289;50.706;4.992;2022-10-16T16:03:23;19.80;99.90
14409;DHT22;7289;50.706;4.992;2022-10-16T16:05:51;19.80;99.90
14409;DHT22;7289;50.706;4.992;2022-10-16T16:08:20;19.70;99.90
14409;DHT22;7289;50.706;4.992;2022-10-16T16:10:57;19.70;99.90
14409;DHT22;7289;50.706;4.992;2022-10-16T16:13:27;19.50;99.90
14409;DHT22;7289;50.706;4.992;2022-10-16T16:15:55;19.50;99.90
14409;DHT22;7289;50.706;4.992;2022-10-16T16:18:24;19.40;99.90
14409;DHT22;7289;50.706;4.992;2022-10-16T16:20:52;19.30;99.90
14409;DHT22;7289;50.706;4.992;2022-10-16T16:23:21;19.30;99.90
14409;DHT22;7289;50.706;4.992;2022-10-16T16:26:09;19.20;99.90